Lucky Thirteen — WDD8654 — position and weather

sailwx.info

Track history (hours):
 
Tides and Currents Weather Stations Pressure Air Temp Water Temp Dewpoint Dewpoint Depression Visibility Wind Speed Wind Dir Waves Ship Positions

Lucky Thirteen

Owner: Kristine L Inc., Barnegat Light, NJ. More information available from US FCC via Universal Licensing System and Coast Guard Vessel Documentation Center.

Last reported at 2017-Jun-26 10:16 UTC. Time now 2017-Jun-26 18:54 UTC.
Position N 39°46' W 074°03'.

Length 23 m.

Type: Fishing. MMSI: 367300990.

Date/timePositionNaut miles runAvg speedWind from/ knotsBaromVisibWave heightAir tempDewpointWater temp
2017-Jun-26 10:16N 39°46' W 074°03'3 0.3
2017-Jun-25 22:45N 39°45' W 074°07'0 0.0
2017-Jun-25 22:27N 39°45' W 074°07'0 0.0
2017-Jun-25 18:15N 39°45' W 074°07'0 0.0
2017-Jun-25 17:45N 39°45' W 074°07'  
2017-Jun-23 09:10N 39°45' W 074°07'0 0.0
2017-Jun-23 08:46N 39°45' W 074°07'0 0.0
2017-Jun-23 08:22N 39°45' W 074°07'0 0.0
2017-Jun-23 07:58N 39°45' W 074°07'0 0.0
2017-Jun-22 16:22N 39°45' W 074°07'0 0.0
2017-Jun-22 13:52N 39°45' W 074°07'0 0.0
2017-Jun-22 13:22N 39°45' W 074°07'0 0.0
2017-Jun-22 12:43N 39°45' W 074°07'0 0.0
2017-Jun-22 12:28N 39°45' W 074°07'0 0.0
2017-Jun-22 11:58N 39°45' W 074°07'0 0.0
2017-Jun-22 11:28N 39°45' W 074°07'0 0.0
2017-Jun-22 10:58N 39°45' W 074°07'0 0.0
2017-Jun-22 10:28N 39°45' W 074°07'0 0.0
2017-Jun-22 09:52N 39°45' W 074°07'0 0.0
2017-Jun-22 09:04N 39°45' W 074°07'0 0.0
2017-Jun-22 08:10N 39°45' W 074°07'0 0.0
2017-Jun-22 07:58N 39°45' W 074°07'0 0.0
2017-Jun-22 07:22N 39°45' W 074°07'1 4.1
2017-Jun-22 07:00N 39°46' W 074°05'4 7.3
2017-Jun-22 06:27N 39°46' W 073°60'0 0.0
2017-Jun-21 12:43N 39°47' W 073°59'2 8.6
2017-Jun-21 12:29N 39°46' W 074°02'4 8.0
2017-Jun-21 12:00N 39°46' W 074°07'1 0.8
2017-Jun-21 11:22N 39°45' W 074°07'0 0.0
2017-Jun-21 10:59N 39°45' W 074°07'0 0.1
2017-Jun-21 10:19N 39°45' W 074°07'0 0.1
2017-Jun-21 10:00N 39°45' W 074°07'0 0.0
2017-Jun-20 23:00N 39°45' W 074°07'0 0.0
2017-Jun-20 22:30N 39°45' W 074°07'0 0.0
2017-Jun-20 11:24N 39°45' W 074°07'0 0.0
2017-Jun-20 10:54N 39°45' W 074°07'0 0.0
2017-Jun-20 07:36N 39°45' W 074°07'0 0.0
2017-Jun-20 04:48N 39°45' W 074°07'0 0.0
2017-Jun-20 04:06N 39°45' W 074°07'0 0.0
2017-Jun-20 03:36N 39°45' W 074°07'0 0.0
2017-Jun-20 01:54N 39°45' W 074°07'0 0.0
2017-Jun-19 15:15N 39°45' W 074°07'0 0.0
2017-Jun-19 12:48N 39°45' W 074°07'0 0.0
2017-Jun-17 21:54N 39°45' W 074°07'  
Track history (hours):
 
Tides and Currents Weather Stations Pressure Air Temp Water Temp Dewpoint Dewpoint Depression Visibility Wind Speed Wind Dir Waves Ship Positions

Lucky Thirteen

Owner: Kristine L Inc., Barnegat Light, NJ. More information available from US FCC via Universal Licensing System and Coast Guard Vessel Documentation Center.

Last reported at 2017-Jun-26 10:16 UTC. Time now 2017-Jun-26 18:54 UTC.
Position N 39°46' W 074°03'.

Length 23 m.

Type: Fishing. MMSI: 367300990.

Date/timePositionNaut miles runAvg speedWind from/ knotsBaromVisibWave heightAir tempDewpointWater temp
2017-Jun-26 10:16N 39°46' W 074°03'3 0.3
2017-Jun-25 22:45N 39°45' W 074°07'0 0.0
2017-Jun-25 22:27N 39°45' W 074°07'0 0.0
2017-Jun-25 18:15N 39°45' W 074°07'0 0.0
2017-Jun-25 17:45N 39°45' W 074°07'  
2017-Jun-23 09:10N 39°45' W 074°07'0 0.0
2017-Jun-23 08:46N 39°45' W 074°07'0 0.0
2017-Jun-23 08:22N 39°45' W 074°07'0 0.0
2017-Jun-23 07:58N 39°45' W 074°07'0 0.0
2017-Jun-22 16:22N 39°45' W 074°07'0 0.0
2017-Jun-22 13:52N 39°45' W 074°07'0 0.0
2017-Jun-22 13:22N 39°45' W 074°07'0 0.0
2017-Jun-22 12:43N 39°45' W 074°07'0 0.0
2017-Jun-22 12:28N 39°45' W 074°07'0 0.0
2017-Jun-22 11:58N 39°45' W 074°07'0 0.0
2017-Jun-22 11:28N 39°45' W 074°07'0 0.0
2017-Jun-22 10:58N 39°45' W 074°07'0 0.0
2017-Jun-22 10:28N 39°45' W 074°07'0 0.0
2017-Jun-22 09:52N 39°45' W 074°07'0 0.0
2017-Jun-22 09:04N 39°45' W 074°07'0 0.0
2017-Jun-22 08:10N 39°45' W 074°07'0 0.0
2017-Jun-22 07:58N 39°45' W 074°07'0 0.0
2017-Jun-22 07:22N 39°45' W 074°07'1 4.1
2017-Jun-22 07:00N 39°46' W 074°05'4 7.3
2017-Jun-22 06:27N 39°46' W 073°60'0 0.0
2017-Jun-21 12:43N 39°47' W 073°59'2 8.6
2017-Jun-21 12:29N 39°46' W 074°02'4 8.0
2017-Jun-21 12:00N 39°46' W 074°07'1 0.8
2017-Jun-21 11:22N 39°45' W 074°07'0 0.0
2017-Jun-21 10:59N 39°45' W 074°07'0 0.1
2017-Jun-21 10:19N 39°45' W 074°07'0 0.1
2017-Jun-21 10:00N 39°45' W 074°07'0 0.0
2017-Jun-20 23:00N 39°45' W 074°07'0 0.0
2017-Jun-20 22:30N 39°45' W 074°07'0 0.0
2017-Jun-20 11:24N 39°45' W 074°07'0 0.0
2017-Jun-20 10:54N 39°45' W 074°07'0 0.0
2017-Jun-20 07:36N 39°45' W 074°07'0 0.0
2017-Jun-20 04:48N 39°45' W 074°07'0 0.0
2017-Jun-20 04:06N 39°45' W 074°07'0 0.0
2017-Jun-20 03:36N 39°45' W 074°07'0 0.0
2017-Jun-20 01:54N 39°45' W 074°07'0 0.0
2017-Jun-19 15:15N 39°45' W 074°07'0 0.0
2017-Jun-19 12:48N 39°45' W 074°07'0 0.0
2017-Jun-17 21:54N 39°45' W 074°07'  

Dump ship's entire track history